sensor_id;sensor_type;location;lat;lon;timestamp;temperature;humidity
69006;SHT31;56061;51.748;19.620;2022-12-07T00:01:37;2.36;90.87
69006;SHT31;56061;51.748;19.620;2022-12-07T00:04:07;2.33;90.94
69006;SHT31;56061;51.748;19.620;2022-12-07T00:06:38;2.35;91.01
69006;SHT31;56061;51.748;19.620;2022-12-07T00:09:11;2.37;91.03
69006;SHT31;56061;51.748;19.620;2022-12-07T00:11:41;2.39;91.00
69006;SHT31;56061;51.748;19.620;2022-12-07T00:14:10;2.40;91.05
69006;SHT31;56061;51.748;19.620;2022-12-07T00:16:39;2.43;91.07
69006;SHT31;56061;51.748;19.620;2022-12-07T00:19:08;2.46;91.08
69006;SHT31;56061;51.748;19.620;2022-12-07T00:21:37;2.45;90.97
69006;SHT31;56061;51.748;19.620;2022-12-07T00:24:04;2.44;90.95
69006;SHT31;56061;51.748;19.620;2022-12-07T00:26:33;2.44;91.09
69006;SHT31;56061;51.748;19.620;2022-12-07T00:29:03;2.44;91.10
69006;SHT31;56061;51.748;19.620;2022-12-07T00:31:34;2.44;91.10
69006;SHT31;56061;51.748;19.620;2022-12-07T00:34:06;2.42;91.09
69006;SHT31;56061;51.748;19.620;2022-12-07T00:36:37;2.42;91.00
69006;SHT31;56061;51.748;19.620;2022-12-07T00:39:04;2.41;91.00
69006;SHT31;56061;51.748;19.620;2022-12-07T00:41:30;2.44;91.07
69006;SHT31;56061;51.748;19.620;2022-12-07T00:43:57;2.46;91.06
69006;SHT31;56061;51.748;19.620;2022-12-07T00:46:24;2.46;91.07
69006;SHT31;56061;51.748;19.620;2022-12-07T00:48:52;2.48;91.06
69006;SHT31;56061;51.748;19.620;2022-12-07T00:51:20;2.51;91.10
69006;SHT31;56061;51.748;19.620;2022-12-07T00:53:50;2.49;90.97
69006;SHT31;56061;51.748;19.620;2022-12-07T00:56:22;2.46;90.97
69006;SHT31;56061;51.748;19.620;2022-12-07T00:58:58;2.45;90.92
69006;SHT31;56061;51.748;19.620;2022-12-07T01:01:28;2.41;90.83
69006;SHT31;56061;51.748;19.620;2022-12-07T01:03:58;2.38;90.81
69006;SHT31;56061;51.748;19.620;2022-12-07T01:06:27;2.37;90.74
69006;SHT31;56061;51.748;19.620;2022-12-07T01:08:54;2.35;90.70
69006;SHT31;56061;51.748;19.620;2022-12-07T01:11:23;2.33;90.72
69006;SHT31;56061;51.748;19.620;2022-12-07T01:13:53;2.33;90.79
69006;SHT31;56061;51.748;19.620;2022-12-07T01:16:23;2.32;90.78
69006;SHT31;56061;51.748;19.620;2022-12-07T01:18:53;2.30;90.72
69006;SHT31;56061;51.748;19.620;2022-12-07T01:21:22;2.28;90.75
69006;SHT31;56061;51.748;19.620;2022-12-07T01:23:51;2.25;90.79
69006;SHT31;56061;51.748;19.620;2022-12-07T01:26:20;2.22;90.81
69006;SHT31;56061;51.748;19.620;2022-12-07T01:28:49;2.20;90.82
69006;SHT31;56061;51.748;19.620;2022-12-07T01:31:18;2.17;90.84
69006;SHT31;56061;51.748;19.620;2022-12-07T01:33:51;2.17;90.89
69006;SHT31;56061;51.748;19.620;2022-12-07T01:38:59;2.20;91.04
69006;SHT31;56061;51.748;19.620;2022-12-07T01:41:30;2.24;91.05
69006;SHT31;56061;51.748;19.620;2022-12-07T01:46:51;2.24;90.96
69006;SHT31;56061;51.748;19.620;2022-12-07T01:51:52;2.20;90.99
69006;SHT31;56061;51.748;19.620;2022-12-07T01:54:39;2.18;91.03
69006;SHT31;56061;51.748;19.620;2022-12-07T01:57:07;2.17;91.01
69006;SHT31;56061;51.748;19.620;2022-12-07T01:59:35;2.17;90.93
69006;SHT31;56061;51.748;19.620;2022-12-07T02:02:03;2.16;90.94
69006;SHT31;56061;51.748;19.620;2022-12-07T02:04:38;2.18;90.94
69006;SHT31;56061;51.748;19.620;2022-12-07T02:07:05;2.21;90.90
69006;SHT31;56061;51.748;19.620;2022-12-07T02:09:32;2.23;90.88
69006;SHT31;56061;51.748;19.620;2022-12-07T02:11:58;2.21;90.83
69006;SHT31;56061;51.748;19.620;2022-12-07T02:14:25;2.19;90.84
69006;SHT31;56061;51.748;19.620;2022-12-07T02:16:55;2.18;90.85
69006;SHT31;56061;51.748;19.620;2022-12-07T02:19:53;2.13;90.76
69006;SHT31;56061;51.748;19.620;2022-12-07T02:22:42;2.09;90.88
69006;SHT31;56061;51.748;19.620;2022-12-07T02:25:52;2.05;90.87
69006;SHT31;56061;51.748;19.620;2022-12-07T02:29:13;2.05;90.92
69006;SHT31;56061;51.748;19.620;2022-12-07T02:32:02;2.05;90.98
69006;SHT31;56061;51.748;19.620;2022-12-07T02:34:42;2.05;90.98
69006;SHT31;56061;51.748;19.620;2022-12-07T02:40:17;2.07;91.09
69006;SHT31;56061;51.748;19.620;2022-12-07T02:42:57;2.07;91.10
69006;SHT31;56061;51.748;19.620;2022-12-07T02:45:32;2.06;91.09
69006;SHT31;56061;51.748;19.620;2022-12-07T02:48:05;2.04;91.10
69006;SHT31;56061;51.748;19.620;2022-12-07T02:50:34;2.01;91.09
69006;SHT31;56061;51.748;19.620;2022-12-07T02:53:00;1.99;91.10
69006;SHT31;56061;51.748;19.620;2022-12-07T02:55:33;1.99;91.19
69006;SHT31;56061;51.748;19.620;2022-12-07T02:58:12;1.99;91.19
69006;SHT31;56061;51.748;19.620;2022-12-07T03:01:04;2.00;91.20
69006;SHT31;56061;51.748;19.620;2022-12-07T03:03:48;2.03;91.23
69006;SHT31;56061;51.748;19.620;2022-12-07T03:06:33;2.05;91.17
69006;SHT31;56061;51.748;19.620;2022-12-07T03:09:17;2.05;91.10
69006;SHT31;56061;51.748;19.620;2022-12-07T03:11:56;2.04;91.14
69006;SHT31;56061;51.748;19.620;2022-12-07T03:14:41;2.03;91.20
69006;SHT31;56061;51.748;19.620;2022-12-07T03:17:25;2.01;91.19
69006;SHT31;56061;51.748;19.620;2022-12-07T03:19:58;1.97;91.22
69006;SHT31;56061;51.748;19.620;2022-12-07T03:22:29;1.96;91.27
69006;SHT31;56061;51.748;19.620;2022-12-07T03:25:01;1.97;91.30
69006;SHT31;56061;51.748;19.620;2022-12-07T03:27:45;1.97;91.33
69006;SHT31;56061;51.748;19.620;2022-12-07T03:30:31;2.00;91.36
69006;SHT31;56061;51.748;19.620;2022-12-07T03:33:10;2.02;91.40
69006;SHT31;56061;51.748;19.620;2022-12-07T03:36:07;2.04;91.40
69006;SHT31;56061;51.748;19.620;2022-12-07T03:38:52;2.06;91.40
69006;SHT31;56061;51.748;19.620;2022-12-07T03:41:27;2.05;91.39
69006;SHT31;56061;51.748;19.620;2022-12-07T03:43:59;2.03;91.47
69006;SHT31;56061;51.748;19.620;2022-12-07T03:46:33;2.01;91.49
69006;SHT31;56061;51.748;19.620;2022-12-07T03:52:25;2.01;91.54
69006;SHT31;56061;51.748;19.620;2022-12-07T03:55:20;2.02;91.60
69006;SHT31;56061;51.748;19.620;2022-12-07T03:57:55;2.05;91.63
69006;SHT31;56061;51.748;19.620;2022-12-07T04:00:30;2.07;91.50
69006;SHT31;56061;51.748;19.620;2022-12-07T04:02:58;2.07;91.40
69006;SHT31;56061;51.748;19.620;2022-12-07T04:05:25;2.04;91.34
69006;SHT31;56061;51.748;19.620;2022-12-07T04:07:52;2.03;91.32
69006;SHT31;56061;51.748;19.620;2022-12-07T04:10:19;2.01;91.32
69006;SHT31;56061;51.748;19.620;2022-12-07T04:12:45;2.02;91.36
69006;SHT31;56061;51.748;19.620;2022-12-07T04:15:12;2.03;91.33
69006;SHT31;56061;51.748;19.620;2022-12-07T04:17:39;2.06;91.32
69006;SHT31;56061;51.748;19.620;2022-12-07T04:20:05;2.05;91.28
69006;SHT31;56061;51.748;19.620;2022-12-07T04:22:33;2.06;91.24
69006;SHT31;56061;51.748;19.620;2022-12-07T04:24:59;2.05;91.21
69006;SHT31;56061;51.748;19.620;2022-12-07T04:27:26;2.03;91.26
69006;SHT31;56061;51.748;19.620;2022-12-07T04:29:52;2.02;91.31
69006;SHT31;56061;51.748;19.620;2022-12-07T04:32:19;2.00;91.30
69006;SHT31;56061;51.748;19.620;2022-12-07T04:34:45;2.00;91.36
69006;SHT31;56061;51.748;19.620;2022-12-07T04:37:16;1.97;91.34
69006;SHT31;56061;51.748;19.620;2022-12-07T04:39:43;1.97;91.30
69006;SHT31;56061;51.748;19.620;2022-12-07T04:42:13;1.98;91.29
69006;SHT31;56061;51.748;19.620;2022-12-07T04:44:39;1.97;91.28
69006;SHT31;56061;51.748;19.620;2022-12-07T04:47:06;1.99;91.29
69006;SHT31;56061;51.748;19.620;2022-12-07T04:49:32;1.99;91.20
69006;SHT31;56061;51.748;19.620;2022-12-07T04:51:59;1.97;91.22
69006;SHT31;56061;51.748;19.620;2022-12-07T04:54:25;1.96;91.20
69006;SHT31;56061;51.748;19.620;2022-12-07T04:56:52;1.93;91.28
69006;SHT31;56061;51.748;19.620;2022-12-07T04:59:18;1.89;91.20
69006;SHT31;56061;51.748;19.620;2022-12-07T05:01:45;1.87;91.29
69006;SHT31;56061;51.748;19.620;2022-12-07T05:04:12;1.83;91.30
69006;SHT31;56061;51.748;19.620;2022-12-07T05:06:38;1.82;91.33
69006;SHT31;56061;51.748;19.620;2022-12-07T05:09:05;1.82;91.38
69006;SHT31;56061;51.748;19.620;2022-12-07T05:11:31;1.84;91.40
69006;SHT31;56061;51.748;19.620;2022-12-07T05:14:05;1.85;91.39
69006;SHT31;56061;51.748;19.620;2022-12-07T05:16:39;1.89;91.39
69006;SHT31;56061;51.748;19.620;2022-12-07T05:19:06;1.91;91.33
69006;SHT31;56061;51.748;19.620;2022-12-07T05:21:34;1.92;91.34
69006;SHT31;56061;51.748;19.620;2022-12-07T05:24:03;1.91;91.37
69006;SHT31;56061;51.748;19.620;2022-12-07T05:26:30;1.91;91.38
69006;SHT31;56061;51.748;19.620;2022-12-07T05:28:58;1.89;91.37
69006;SHT31;56061;51.748;19.620;2022-12-07T05:31:24;1.88;91.40
69006;SHT31;56061;51.748;19.620;2022-12-07T05:33:53;1.89;91.43
69006;SHT31;56061;51.748;19.620;2022-12-07T05:36:19;1.90;91.42
69006;SHT31;56061;51.748;19.620;2022-12-07T05:38:46;1.93;91.50
69006;SHT31;56061;51.748;19.620;2022-12-07T05:41:14;1.96;91.50
69006;SHT31;56061;51.748;19.620;2022-12-07T05:44:02;1.97;91.46
69006;SHT31;56061;51.748;19.620;2022-12-07T05:46:29;1.98;91.49
69006;SHT31;56061;51.748;19.620;2022-12-07T05:48:56;1.97;91.41
69006;SHT31;56061;51.748;19.620;2022-12-07T05:51:22;1.95;91.40
69006;SHT31;56061;51.748;19.620;2022-12-07T05:53:49;1.93;91.43
69006;SHT31;56061;51.748;19.620;2022-12-07T05:56:15;1.92;91.51
69006;SHT31;56061;51.748;19.620;2022-12-07T05:58:42;1.93;91.53
69006;SHT31;56061;51.748;19.620;2022-12-07T06:01:27;1.93;91.51
69006;SHT31;56061;51.748;19.620;2022-12-07T06:03:54;1.94;91.58
69006;SHT31;56061;51.748;19.620;2022-12-07T06:06:21;1.94;91.56
69006;SHT31;56061;51.748;19.620;2022-12-07T06:08:47;1.94;91.52
69006;SHT31;56061;51.748;19.620;2022-12-07T06:11:14;1.92;91.53
69006;SHT31;56061;51.748;19.620;2022-12-07T06:13:59;1.92;91.53
69006;SHT31;56061;51.748;19.620;2022-12-07T06:16:26;1.89;91.52
69006;SHT31;56061;51.748;19.620;2022-12-07T06:18:52;1.84;91.59
69006;SHT31;56061;51.748;19.620;2022-12-07T06:21:18;1.82;91.67
69006;SHT31;56061;51.748;19.620;2022-12-07T06:23:45;1.80;91.70
69006;SHT31;56061;51.748;19.620;2022-12-07T06:26:11;1.81;91.76
69006;SHT31;56061;51.748;19.620;2022-12-07T06:28:38;1.81;91.84
69006;SHT31;56061;51.748;19.620;2022-12-07T06:31:04;1.83;91.97
69006;SHT31;56061;51.748;19.620;2022-12-07T06:33:38;1.85;92.04
69006;SHT31;56061;51.748;19.620;2022-12-07T06:36:05;1.88;92.07
69006;SHT31;56061;51.748;19.620;2022-12-07T06:38:32;1.90;92.10
69006;SHT31;56061;51.748;19.620;2022-12-07T06:40:58;1.92;92.12
69006;SHT31;56061;51.748;19.620;2022-12-07T06:43:25;1.93;92.22
69006;SHT31;56061;51.748;19.620;2022-12-07T06:45:51;1.94;92.21
69006;SHT31;56061;51.748;19.620;2022-12-07T06:48:18;1.95;92.25
69006;SHT31;56061;51.748;19.620;2022-12-07T06:50:45;1.97;92.27
69006;SHT31;56061;51.748;19.620;2022-12-07T06:53:19;2.02;92.29
69006;SHT31;56061;51.748;19.620;2022-12-07T06:55:46;2.03;92.24
69006;SHT31;56061;51.748;19.620;2022-12-07T06:58:12;2.06;92.29
69006;SHT31;56061;51.748;19.620;2022-12-07T07:00:39;2.10;92.23
69006;SHT31;56061;51.748;19.620;2022-12-07T07:03:05;2.11;92.15
69006;SHT31;56061;51.748;19.620;2022-12-07T07:05:32;2.13;92.17
69006;SHT31;56061;51.748;19.620;2022-12-07T07:07:58;2.13;92.11
69006;SHT31;56061;51.748;19.620;2022-12-07T07:10:44;2.14;92.10
69006;SHT31;56061;51.748;19.620;2022-12-07T07:13:11;2.15;92.17
69006;SHT31;56061;51.748;19.620;2022-12-07T07:15:38;2.16;92.13
69006;SHT31;56061;51.748;19.620;2022-12-07T07:18:05;2.17;92.10
69006;SHT31;56061;51.748;19.620;2022-12-07T07:20:33;2.19;92.13
69006;SHT31;56061;51.748;19.620;2022-12-07T07:23:00;2.20;92.06
69006;SHT31;56061;51.748;19.620;2022-12-07T07:25:27;2.23;92.08
69006;SHT31;56061;51.748;19.620;2022-12-07T07:27:53;2.28;92.11
69006;SHT31;56061;51.748;19.620;2022-12-07T07:30:20;2.30;91.99
69006;SHT31;56061;51.748;19.620;2022-12-07T07:32:47;2.34;91.92
69006;SHT31;56061;51.748;19.620;2022-12-07T07:35:14;2.36;91.83
69006;SHT31;56061;51.748;19.620;2022-12-07T07:37:41;2.37;91.83
69006;SHT31;56061;51.748;19.620;2022-12-07T07:40:08;2.40;91.88
69006;SHT31;56061;51.748;19.620;2022-12-07T07:42:35;2.42;91.87
69006;SHT31;56061;51.748;19.620;2022-12-07T07:45:02;2.42;91.80
69006;SHT31;56061;51.748;19.620;2022-12-07T07:47:29;2.43;91.70
69006;SHT31;56061;51.748;19.620;2022-12-07T07:49:55;2.46;91.68
69006;SHT31;56061;51.748;19.620;2022-12-07T07:52:22;2.49;91.69
69006;SHT31;56061;51.748;19.620;2022-12-07T07:54:48;2.51;91.59
69006;SHT31;56061;51.748;19.620;2022-12-07T07:57:16;2.53;91.53
69006;SHT31;56061;51.748;19.620;2022-12-07T07:59:43;2.55;91.47
69006;SHT31;56061;51.748;19.620;2022-12-07T08:02:13;2.56;91.44
69006;SHT31;56061;51.748;19.620;2022-12-07T08:04:45;2.59;91.39
69006;SHT31;56061;51.748;19.620;2022-12-07T08:07:13;2.59;91.21
69006;SHT31;56061;51.748;19.620;2022-12-07T08:09:41;2.58;91.09
69006;SHT31;56061;51.748;19.620;2022-12-07T08:12:08;2.56;90.87
69006;SHT31;56061;51.748;19.620;2022-12-07T08:14:35;2.56;90.80
69006;SHT31;56061;51.748;19.620;2022-12-07T08:17:01;2.56;90.79
69006;SHT31;56061;51.748;19.620;2022-12-07T08:19:28;2.58;90.81
69006;SHT31;56061;51.748;19.620;2022-12-07T08:21:55;2.61;90.76
69006;SHT31;56061;51.748;19.620;2022-12-07T08:24:22;2.64;90.67
69006;SHT31;56061;51.748;19.620;2022-12-07T08:26:51;2.68;90.68
69006;SHT31;56061;51.748;19.620;2022-12-07T08:29:17;2.71;90.70
69006;SHT31;56061;51.748;19.620;2022-12-07T08:31:44;2.72;90.41
69006;SHT31;56061;51.748;19.620;2022-12-07T08:34:11;2.70;90.36
69006;SHT31;56061;51.748;19.620;2022-12-07T08:36:39;2.71;90.41
69006;SHT31;56061;51.748;19.620;2022-12-07T08:39:06;2.67;90.21
69006;SHT31;56061;51.748;19.620;2022-12-07T08:41:52;2.66;90.26
69006;SHT31;56061;51.748;19.620;2022-12-07T08:44:19;2.67;90.37
69006;SHT31;56061;51.748;19.620;2022-12-07T08:46:50;2.69;90.31
69006;SHT31;56061;51.748;19.620;2022-12-07T08:49:27;2.70;90.32
69006;SHT31;56061;51.748;19.620;2022-12-07T08:52:02;2.72;90.35
69006;SHT31;56061;51.748;19.620;2022-12-07T08:54:31;2.74;90.35
69006;SHT31;56061;51.748;19.620;2022-12-07T08:57:01;2.77;90.33
69006;SHT31;56061;51.748;19.620;2022-12-07T08:59:29;2.78;90.34
69006;SHT31;56061;51.748;19.620;2022-12-07T09:01:56;2.78;90.30
69006;SHT31;56061;51.748;19.620;2022-12-07T09:04:23;2.76;90.25
69006;SHT31;56061;51.748;19.620;2022-12-07T09:06:50;2.74;90.30
69006;SHT31;56061;51.748;19.620;2022-12-07T09:09:16;2.70;90.29
69006;SHT31;56061;51.748;19.620;2022-12-07T09:11:43;2.70;90.35
69006;SHT31;56061;51.748;19.620;2022-12-07T09:14:11;2.71;90.39
69006;SHT31;56061;51.748;19.620;2022-12-07T09:16:39;2.72;90.33
69006;SHT31;56061;51.748;19.620;2022-12-07T09:19:06;2.73;90.34
69006;SHT31;56061;51.748;19.620;2022-12-07T09:21:34;2.73;90.33
69006;SHT31;56061;51.748;19.620;2022-12-07T09:24:00;2.75;90.34
69006;SHT31;56061;51.748;19.620;2022-12-07T09:26:27;2.75;90.34
69006;SHT31;56061;51.748;19.620;2022-12-07T09:28:53;2.77;90.30
69006;SHT31;56061;51.748;19.620;2022-12-07T09:31:20;2.78;90.27
69006;SHT31;56061;51.748;19.620;2022-12-07T09:33:56;2.75;90.31
69006;SHT31;56061;51.748;19.620;2022-12-07T09:36:26;2.73;90.27
69006;SHT31;56061;51.748;19.620;2022-12-07T09:38:54;2.69;90.26
69006;SHT31;56061;51.748;19.620;2022-12-07T09:41:22;2.65;90.27
69006;SHT31;56061;51.748;19.620;2022-12-07T09:43:51;2.64;90.30
69006;SHT31;56061;51.748;19.620;2022-12-07T09:46:21;2.62;90.24
69006;SHT31;56061;51.748;19.620;2022-12-07T09:48:48;2.60;90.18
69006;SHT31;56061;51.748;19.620;2022-12-07T09:51:18;2.60;90.16
69006;SHT31;56061;51.748;19.620;2022-12-07T09:53:51;2.56;90.05
69006;SHT31;56061;51.748;19.620;2022-12-07T09:56:21;2.56;90.05
69006;SHT31;56061;51.748;19.620;2022-12-07T09:58:49;2.53;90.07
69006;SHT31;56061;51.748;19.620;2022-12-07T10:01:20;2.55;90.20
69006;SHT31;56061;51.748;19.620;2022-12-07T10:03:52;2.56;90.20
69006;SHT31;56061;51.748;19.620;2022-12-07T10:06:24;2.54;90.22
69006;SHT31;56061;51.748;19.620;2022-12-07T10:08:51;2.51;90.21
69006;SHT31;56061;51.748;19.620;2022-12-07T10:11:17;2.48;90.26
69006;SHT31;56061;51.748;19.620;2022-12-07T10:13:48;2.47;90.36
69006;SHT31;56061;51.748;19.620;2022-12-07T10:16:37;2.49;90.40
69006;SHT31;56061;51.748;19.620;2022-12-07T10:19:17;2.52;90.42
69006;SHT31;56061;51.748;19.620;2022-12-07T10:24:42;2.59;90.33
69006;SHT31;56061;51.748;19.620;2022-12-07T10:27:20;2.61;90.31
69006;SHT31;56061;51.748;19.620;2022-12-07T10:29:58;2.66;90.36
69006;SHT31;56061;51.748;19.620;2022-12-07T10:32:28;2.67;90.31
69006;SHT31;56061;51.748;19.620;2022-12-07T10:38:14;2.73;90.38
69006;SHT31;56061;51.748;19.620;2022-12-07T10:40:43;2.71;90.26
69006;SHT31;56061;51.748;19.620;2022-12-07T10:51:21;2.62;90.16
69006;SHT31;56061;51.748;19.620;2022-12-07T10:54:11;2.63;90.16
69006;SHT31;56061;51.748;19.620;2022-12-07T11:00:11;2.58;89.90
69006;SHT31;56061;51.748;19.620;2022-12-07T11:11:33;2.43;89.69
69006;SHT31;56061;51.748;19.620;2022-12-07T11:17:44;2.36;89.60
69006;SHT31;56061;51.748;19.620;2022-12-07T11:29:12;2.34;89.69
69006;SHT31;56061;51.748;19.620;2022-12-07T11:32:19;2.33;89.42
69006;SHT31;56061;51.748;19.620;2022-12-07T11:38:25;2.26;89.09
69006;SHT31;56061;51.748;19.620;2022-12-07T11:41:03;2.24;88.88
69006;SHT31;56061;51.748;19.620;2022-12-07T11:43:52;2.25;88.84
69006;SHT31;56061;51.748;19.620;2022-12-07T11:47:01;2.26;88.37
69006;SHT31;56061;51.748;19.620;2022-12-07T11:49:47;2.23;88.05
69006;SHT31;56061;51.748;19.620;2022-12-07T11:52:22;2.22;87.94
69006;SHT31;56061;51.748;19.620;2022-12-07T11:54:58;2.22;87.81
69006;SHT31;56061;51.748;19.620;2022-12-07T11:57:33;2.22;87.68
69006;SHT31;56061;51.748;19.620;2022-12-07T12:00:15;2.19;87.62
69006;SHT31;56061;51.748;19.620;2022-12-07T12:02:44;2.19;87.63
69006;SHT31;56061;51.748;19.620;2022-12-07T12:05:21;2.17;87.65
69006;SHT31;56061;51.748;19.620;2022-12-07T12:08:13;2.15;87.66
69006;SHT31;56061;51.748;19.620;2022-12-07T12:25:59;2.34;87.77
69006;SHT31;56061;51.748;19.620;2022-12-07T12:29:32;2.36;87.81
69006;SHT31;56061;51.748;19.620;2022-12-07T12:31:46;2.39;87.91
69006;SHT31;56061;51.748;19.620;2022-12-07T12:34:33;2.40;87.94
69006;SHT31;56061;51.748;19.620;2022-12-07T12:42:43;2.41;88.12
69006;SHT31;56061;51.748;19.620;2022-12-07T12:45:27;2.41;88.08
69006;SHT31;56061;51.748;19.620;2022-12-07T12:50:31;2.42;88.17
69006;SHT31;56061;51.748;19.620;2022-12-07T13:00:47;2.55;88.49
69006;SHT31;56061;51.748;19.620;2022-12-07T13:03:53;2.55;88.53
69006;SHT31;56061;51.748;19.620;2022-12-07T13:08:50;2.48;88.59
69006;SHT31;56061;51.748;19.620;2022-12-07T13:11:32;2.46;88.75
69006;SHT31;56061;51.748;19.620;2022-12-07T13:17:55;2.46;88.73
69006;SHT31;56061;51.748;19.620;2022-12-07T13:20:00;2.46;88.76
69006;SHT31;56061;51.748;19.620;2022-12-07T13:24:56;2.42;88.79
69006;SHT31;56061;51.748;19.620;2022-12-07T13:27:34;2.40;88.84
69006;SHT31;56061;51.748;19.620;2022-12-07T13:30:15;2.37;88.91
69006;SHT31;56061;51.748;19.620;2022-12-07T13:32:51;2.35;89.00
69006;SHT31;56061;51.748;19.620;2022-12-07T13:35:30;2.30;89.06
69006;SHT31;56061;51.748;19.620;2022-12-07T13:38:13;2.27;89.17
69006;SHT31;56061;51.748;19.620;2022-12-07T13:43:45;2.23;89.20
69006;SHT31;56061;51.748;19.620;2022-12-07T13:46:53;2.21;89.28
69006;SHT31;56061;51.748;19.620;2022-12-07T13:49:31;2.21;89.37
69006;SHT31;56061;51.748;19.620;2022-12-07T13:52:08;2.20;89.41
69006;SHT31;56061;51.748;19.620;2022-12-07T13:57:37;2.15;89.45
69006;SHT31;56061;51.748;19.620;2022-12-07T14:00:05;2.11;89.51
69006;SHT31;56061;51.748;19.620;2022-12-07T14:02:54;2.08;89.63
69006;SHT31;56061;51.748;19.620;2022-12-07T14:05:27;2.08;89.79
69006;SHT31;56061;51.748;19.620;2022-12-07T14:08:00;2.10;89.91
69006;SHT31;56061;51.748;19.620;2022-12-07T14:10:35;2.12;90.02
69006;SHT31;56061;51.748;19.620;2022-12-07T14:13:24;2.14;90.02
69006;SHT31;56061;51.748;19.620;2022-12-07T14:16:00;2.16;90.09
69006;SHT31;56061;51.748;19.620;2022-12-07T14:18:30;2.17;90.13
69006;SHT31;56061;51.748;19.620;2022-12-07T14:23:39;2.18;90.15
69006;SHT31;56061;51.748;19.620;2022-12-07T14:28:37;2.17;90.20
69006;SHT31;56061;51.748;19.620;2022-12-07T14:31:08;2.16;90.21
69006;SHT31;56061;51.748;19.620;2022-12-07T14:33:58;2.15;90.11
69006;SHT31;56061;51.748;19.620;2022-12-07T14:36:25;2.15;90.13
69006;SHT31;56061;51.748;19.620;2022-12-07T14:38:52;2.16;90.15
69006;SHT31;56061;51.748;19.620;2022-12-07T14:41:22;2.18;90.19
69006;SHT31;56061;51.748;19.620;2022-12-07T14:44:11;2.20;90.19
69006;SHT31;56061;51.748;19.620;2022-12-07T14:46:58;2.23;90.19
69006;SHT31;56061;51.748;19.620;2022-12-07T14:49:45;2.26;90.19
69006;SHT31;56061;51.748;19.620;2022-12-07T14:52:14;2.27;90.12
69006;SHT31;56061;51.748;19.620;2022-12-07T14:55:24;2.28;90.08
69006;SHT31;56061;51.748;19.620;2022-12-07T14:57:56;2.28;90.01
69006;SHT31;56061;51.748;19.620;2022-12-07T15:00:24;2.28;89.99
69006;SHT31;56061;51.748;19.620;2022-12-07T15:02:54;2.28;89.92
69006;SHT31;56061;51.748;19.620;2022-12-07T15:05:22;2.29;89.97
69006;SHT31;56061;51.748;19.620;2022-12-07T15:07:49;2.31;89.90
69006;SHT31;56061;51.748;19.620;2022-12-07T15:10:18;2.32;89.89
69006;SHT31;56061;51.748;19.620;2022-12-07T15:12:50;2.33;89.87
69006;SHT31;56061;51.748;19.620;2022-12-07T15:15:17;2.38;89.90
69006;SHT31;56061;51.748;19.620;2022-12-07T15:17:43;2.38;89.80
69006;SHT31;56061;51.748;19.620;2022-12-07T15:20:12;2.38;89.76
69006;SHT31;56061;51.748;19.620;2022-12-07T15:22:42;2.36;89.70
69006;SHT31;56061;51.748;19.620;2022-12-07T15:25:09;2.33;89.70
69006;SHT31;56061;51.748;19.620;2022-12-07T15:27:39;2.31;89.69
69006;SHT31;56061;51.748;19.620;2022-12-07T15:30:06;2.28;89.62
69006;SHT31;56061;51.748;19.620;2022-12-07T15:32:33;2.25;89.60
69006;SHT31;56061;51.748;19.620;2022-12-07T15:35:00;2.23;89.58
69006;SHT31;56061;51.748;19.620;2022-12-07T15:37:27;2.23;89.60
69006;SHT31;56061;51.748;19.620;2022-12-07T15:39:53;2.24;89.59
69006;SHT31;56061;51.748;19.620;2022-12-07T15:42:20;2.24;89.51
69006;SHT31;56061;51.748;19.620;2022-12-07T15:44:46;2.26;89.50
69006;SHT31;56061;51.748;19.620;2022-12-07T15:50:24;2.29;89.44
69006;SHT31;56061;51.748;19.620;2022-12-07T15:52:51;2.28;89.35
69006;SHT31;56061;51.748;19.620;2022-12-07T15:55:17;2.27;89.31
69006;SHT31;56061;51.748;19.620;2022-12-07T15:57:44;2.25;89.32
69006;SHT31;56061;51.748;19.620;2022-12-07T16:00:10;2.22;89.30
69006;SHT31;56061;51.748;19.620;2022-12-07T16:02:38;2.19;89.28
69006;SHT31;56061;51.748;19.620;2022-12-07T16:05:05;2.18;89.24
69006;SHT31;56061;51.748;19.620;2022-12-07T16:07:32;2.19;89.30
69006;SHT31;56061;51.748;19.620;2022-12-07T16:09:59;2.19;89.20
69006;SHT31;56061;51.748;19.620;2022-12-07T16:12:25;2.16;89.14
69006;SHT31;56061;51.748;19.620;2022-12-07T16:14:51;2.13;89.16
69006;SHT31;56061;51.748;19.620;2022-12-07T16:17:18;2.11;89.26
69006;SHT31;56061;51.748;19.620;2022-12-07T16:19:44;2.10;89.32
69006;SHT31;56061;51.748;19.620;2022-12-07T16:22:11;2.09;89.40
69006;SHT31;56061;51.748;19.620;2022-12-07T16:24:37;2.06;89.39
69006;SHT31;56061;51.748;19.620;2022-12-07T16:27:04;2.04;89.43
69006;SHT31;56061;51.748;19.620;2022-12-07T16:29:30;2.02;89.49
69006;SHT31;56061;51.748;19.620;2022-12-07T16:31:56;1.99;89.50
69006;SHT31;56061;51.748;19.620;2022-12-07T16:34:23;1.97;89.46
69006;SHT31;56061;51.748;19.620;2022-12-07T16:36:49;1.99;89.48
69006;SHT31;56061;51.748;19.620;2022-12-07T16:39:32;2.00;89.50
69006;SHT31;56061;51.748;19.620;2022-12-07T16:42:00;2.03;89.49
69006;SHT31;56061;51.748;19.620;2022-12-07T16:44:26;2.04;89.49
69006;SHT31;56061;51.748;19.620;2022-12-07T16:46:53;2.05;89.50
69006;SHT31;56061;51.748;19.620;2022-12-07T16:49:19;2.09;89.48
69006;SHT31;56061;51.748;19.620;2022-12-07T16:51:49;2.09;89.49
69006;SHT31;56061;51.748;19.620;2022-12-07T16:54:36;2.09;89.45
69006;SHT31;56061;51.748;19.620;2022-12-07T16:57:03;2.07;89.43
69006;SHT31;56061;51.748;19.620;2022-12-07T16:59:29;2.05;89.48
69006;SHT31;56061;51.748;19.620;2022-12-07T17:01:56;2.04;89.58
69006;SHT31;56061;51.748;19.620;2022-12-07T17:04:22;2.04;89.56
69006;SHT31;56061;51.748;19.620;2022-12-07T17:06:49;2.05;89.54
69006;SHT31;56061;51.748;19.620;2022-12-07T17:09:16;2.04;89.50
69006;SHT31;56061;51.748;19.620;2022-12-07T17:11:46;2.06;89.50
69006;SHT31;56061;51.748;19.620;2022-12-07T17:14:13;2.07;89.43
69006;SHT31;56061;51.748;19.620;2022-12-07T17:16:59;2.08;89.34
69006;SHT31;56061;51.748;19.620;2022-12-07T17:19:28;2.09;89.20
69006;SHT31;56061;51.748;19.620;2022-12-07T17:21:55;2.07;89.05
69006;SHT31;56061;51.748;19.620;2022-12-07T17:24:21;2.07;89.03
69006;SHT31;56061;51.748;19.620;2022-12-07T17:26:48;2.04;88.86
69006;SHT31;56061;51.748;19.620;2022-12-07T17:29:15;2.03;88.86
69006;SHT31;56061;51.748;19.620;2022-12-07T17:31:44;2.02;88.91
69006;SHT31;56061;51.748;19.620;2022-12-07T17:34:16;2.03;88.89
69006;SHT31;56061;51.748;19.620;2022-12-07T17:36:44;2.06;88.82
69006;SHT31;56061;51.748;19.620;2022-12-07T17:39:14;2.06;88.63
69006;SHT31;56061;51.748;19.620;2022-12-07T17:41:43;2.09;88.48
69006;SHT31;56061;51.748;19.620;2022-12-07T17:44:28;2.09;88.15
69006;SHT31;56061;51.748;19.620;2022-12-07T17:46:55;2.05;88.12
69006;SHT31;56061;51.748;19.620;2022-12-07T17:49:25;1.99;88.07